createdAt,value
2018-07-21T18:02:12.656Z,41.23
2018-07-21T18:04:39.915Z,40.39
2018-07-21T18:07:07.847Z,40.94
2018-07-21T18:09:35.833Z,40.36
2018-07-21T18:12:03.172Z,40.98
2018-07-21T18:14:30.566Z,41.45
2018-07-21T18:16:57.879Z,42.01
2018-07-21T18:19:25.596Z,41.88
2018-07-21T18:21:52.872Z,44.20
2018-07-21T18:24:20.322Z,44.46
2018-07-21T18:26:47.588Z,43.83
2018-07-21T18:29:14.839Z,42.93
2018-07-21T18:31:42.131Z,42.89
2018-07-21T18:34:09.512Z,43.30
2018-07-21T18:36:36.800Z,44.23
2018-07-21T18:39:06.861Z,43.85
2018-07-21T18:41:34.277Z,43.48
2018-07-21T18:44:01.795Z,44.18
2018-07-21T18:46:29.083Z,46.69
2018-07-21T18:48:56.414Z,46.26
2018-07-21T18:51:23.689Z,44.82
2018-07-21T18:53:50.937Z,45.59
2018-07-21T18:56:19.418Z,46.45
2018-07-21T18:58:46.695Z,47.33
2018-07-21T19:01:14.988Z,48.71
2018-07-21T19:03:42.261Z,50.32
2018-07-21T19:06:09.700Z,49.70
2018-07-21T19:08:42.839Z,44.94
2018-07-21T19:11:10.301Z,48.82
2018-07-21T19:13:37.721Z,50.24
2018-07-21T19:16:10.640Z,48.32
2018-07-21T19:18:38.084Z,49.74
2018-07-21T19:21:11.310Z,49.79
2018-07-21T19:23:39.264Z,48.84
2018-07-21T19:26:12.306Z,52.71
2018-07-21T19:28:39.616Z,53.32
2018-07-21T19:31:06.918Z,54.94
2018-07-21T19:33:34.935Z,56.37
2018-07-21T19:36:02.259Z,55.79
2018-07-21T19:38:29.540Z,54.83
2018-07-21T19:41:00.830Z,57.95
2018-07-21T19:43:28.354Z,56.12
2018-07-21T19:45:55.736Z,55.89
2018-07-21T19:48:23.483Z,57.87
2018-07-21T19:50:51.416Z,56.29
2018-07-21T19:53:18.765Z,60.05
2018-07-21T19:55:46.049Z,59.19
2018-07-21T19:58:13.369Z,60.17
2018-07-21T20:00:40.707Z,60.30
2018-07-21T20:03:08.021Z,60.34
2018-07-21T20:05:35.288Z,58.97
2018-07-21T20:08:02.558Z,59.74
2018-07-21T20:10:29.913Z,59.05
2018-07-21T20:12:57.201Z,59.16
2018-07-21T20:15:24.491Z,58.52
2018-07-21T20:17:51.892Z,58.04
2018-07-21T20:20:19.452Z,57.32
2018-07-21T20:22:47.373Z,56.18
2018-07-21T20:25:14.825Z,56.73
2018-07-21T20:27:42.743Z,59.05
2018-07-21T20:30:10.752Z,57.91
2018-07-21T20:32:38.059Z,57.38
2018-07-21T20:35:05.332Z,58.85
2018-07-21T20:37:32.640Z,57.75
2018-07-21T20:39:59.922Z,57.96
2018-07-21T20:42:27.270Z,57.58
2018-07-21T20:44:54.529Z,55.66
2018-07-21T20:47:21.870Z,53.96
2018-07-21T20:49:49.186Z,54.40
2018-07-21T20:52:16.448Z,55.81
2018-07-21T20:54:43.716Z,58.31
2018-07-21T20:57:11.011Z,59.50
2018-07-21T20:59:38.366Z,59.98
2018-07-21T21:02:05.674Z,58.58
2018-07-21T21:04:32.953Z,59.90
2018-07-21T21:07:00.233Z,59.59
2018-07-21T21:09:27.586Z,60.69
2018-07-21T21:11:54.889Z,60.76
2018-07-21T21:14:22.194Z,60.40
2018-07-21T21:16:49.503Z,59.24
2018-07-21T21:19:16.808Z,58.79
2018-07-21T21:21:44.096Z,60.02
2018-07-21T21:24:11.366Z,58.92
2018-07-21T21:26:38.668Z,58.10
2018-07-21T21:29:05.892Z,59.89
2018-07-21T21:31:33.191Z,59.31
2018-07-21T21:34:00.481Z,59.08
2018-07-21T21:36:27.799Z,60.89
2018-07-21T21:38:55.088Z,61.38
2018-07-21T21:41:22.351Z,60.98
2018-07-21T21:43:49.615Z,60.39
2018-07-21T21:46:16.907Z,60.23
2018-07-21T21:48:44.405Z,60.32
2018-07-21T21:51:12.239Z,59.97
2018-07-21T21:53:39.550Z,59.53
2018-07-21T21:56:06.987Z,61.14
2018-07-21T21:58:34.275Z,60.23
2018-07-21T22:01:12.993Z,60.82
2018-07-21T22:03:40.305Z,61.34
2018-07-21T22:06:07.608Z,61.99
2018-07-21T22:08:34.904Z,61.42
2018-07-21T22:11:02.678Z,62.98
2018-07-21T22:13:30.024Z,62.68
2018-07-21T22:15:57.720Z,61.66
2018-07-21T22:18:25.385Z,63.58
2018-07-21T22:20:52.680Z,62.18
2018-07-21T22:23:20.016Z,61.89
2018-07-21T22:25:47.276Z,62.48
2018-07-21T22:28:14.578Z,61.89
2018-07-21T22:30:41.854Z,61.50
2018-07-21T22:33:09.124Z,62.85
2018-07-21T22:35:36.416Z,62.01
2018-07-21T22:38:03.759Z,62.72
2018-07-21T22:40:31.061Z,62.69
2018-07-21T22:42:58.646Z,61.98
2018-07-21T22:45:25.979Z,62.31
2018-07-21T22:47:53.259Z,62.10
2018-07-21T22:50:20.527Z,63.44
2018-07-21T22:52:47.768Z,62.96
2018-07-21T22:55:15.074Z,61.74
2018-07-21T22:57:42.501Z,62.69
2018-07-21T23:00:09.767Z,62.62
2018-07-21T23:02:37.136Z,61.14
2018-07-21T23:05:04.507Z,62.67
2018-07-21T23:07:31.764Z,61.75
2018-07-21T23:09:59.004Z,63.29
2018-07-21T23:12:26.259Z,62.92
2018-07-21T23:14:53.593Z,62.24
2018-07-21T23:17:20.906Z,62.79
2018-07-21T23:19:48.205Z,62.33
2018-07-21T23:22:15.515Z,63.84
2018-07-21T23:24:42.829Z,63.37
2018-07-21T23:27:10.473Z,62.54
2018-07-21T23:29:37.810Z,63.02
2018-07-21T23:32:05.079Z,63.23
2018-07-21T23:37:42.177Z,62.71
2018-07-21T23:40:11.272Z,63.70
2018-07-21T23:42:39.417Z,63.16
2018-07-21T23:45:08.059Z,63.13
2018-07-21T23:47:36.036Z,64.42
2018-07-21T23:50:05.116Z,64.39
2018-07-21T23:52:33.272Z,64.13
2018-07-21T23:55:01.856Z,63.91
2018-07-21T23:57:30.361Z,63.70
